Time;durP1;ratioP1;P1;durP2;ratioP2;P2;SDS_P1;SDS_P2;PMS_P1;PMS_P2;Temp;Humidity;BMP_temperature;BMP_pressure;BME280_temperature;BME280_humidity;BME280_pressure;Samples;Min_cycle;Max_cycle;Signal;HPM_P1;HPM_P2
2023/09/17 00:01:01;;;;;;;7.73;7.03;;;27.40;54.30;;;;;;5006913;28;20723;-44
2023/09/17 00:03:27;;;;;;;9.03;6.73;;;27.40;54.30;;;;;;5003726;28;20851;-50
2023/09/17 00:05:52;;;;;;;7.37;6.77;;;27.40;54.30;;;;;;5007445;28;20646;-48
2023/09/17 00:08:18;;;;;;;7.70;7.10;;;27.20;54.70;;;;;;5004396;28;20253;-45
2023/09/17 00:10:45;;;;;;;7.23;6.63;;;27.10;54.90;;;;;;5000986;28;20194;-45
2023/09/17 00:13:13;;;;;;;7.70;7.20;;;26.90;55.40;;;;;;5002063;28;20193;-50
2023/09/17 00:15:39;;;;;;;7.50;6.83;;;26.80;55.70;;;;;;5005857;28;20480;-51
2023/09/17 00:18:05;;;;;;;7.80;6.93;;;26.80;55.90;;;;;;5003445;28;20478;-48
2023/09/17 00:20:30;;;;;;;7.40;6.80;;;26.70;56.40;;;;;;5003462;28;20187;-44
2023/09/17 00:22:56;;;;;;;7.00;6.50;;;26.80;55.90;;;;;;5010889;28;20247;-45
2023/09/17 00:25:21;;;;;;;7.30;6.60;;;26.90;55.60;;;;;;5009337;28;20204;-44
2023/09/17 00:27:47;;;;;;;7.90;7.13;;;26.90;55.40;;;;;;5009428;28;20194;-50
2023/09/17 00:30:13;;;;;;;7.50;6.90;;;27.00;55.20;;;;;;5008848;28;20192;-44
2023/09/17 00:32:40;;;;;;;8.43;7.17;;;27.00;55.00;;;;;;5007456;28;20225;-45
2023/09/17 00:35:06;;;;;;;10.43;6.50;;;27.10;54.90;;;;;;5003807;28;20519;-50
2023/09/17 00:37:31;;;;;;;6.50;5.80;;;27.10;54.80;;;;;;5007983;28;20512;-45
2023/09/17 00:39:57;;;;;;;5.77;5.37;;;27.20;54.60;;;;;;5006193;28;20882;-44
2023/09/17 00:42:23;;;;;;;7.63;5.53;;;27.30;54.30;;;;;;5009631;28;20186;-44
2023/09/17 00:44:49;;;;;;;6.70;6.10;;;27.30;54.20;;;;;;5010324;28;20453;-46
2023/09/17 00:47:14;;;;;;;6.53;5.47;;;27.30;54.10;;;;;;5008637;28;20628;-45
2023/09/17 00:49:41;;;;;;;6.43;5.93;;;27.40;54.10;;;;;;5012394;28;20569;-50
2023/09/17 00:52:17;;;;;;;6.90;6.30;;;27.40;53.80;;;;;;5006409;28;20194;-44
2023/09/17 00:54:44;;;;;;;7.13;6.53;;;27.40;53.70;;;;;;5010930;28;20499;-50
2023/09/17 00:57:12;;;;;;;6.17;5.67;;;27.40;53.60;;;;;;5008292;28;20448;-44
2023/09/17 00:59:37;;;;;;;5.90;5.40;;;27.50;53.50;;;;;;5008944;28;20441;-45
2023/09/17 01:02:04;;;;;;;6.53;5.90;;;27.40;53.60;;;;;;5008554;28;21093;-48
2023/09/17 01:04:31;;;;;;;6.93;6.33;;;27.30;53.90;;;;;;5008125;28;20280;-47
2023/09/17 01:06:58;;;;;;;5.83;5.40;;;27.20;54.20;;;;;;5007981;28;20453;-44
2023/09/17 01:09:25;;;;;;;8.10;5.87;;;27.00;54.70;;;;;;5007729;28;20527;-50
2023/09/17 01:11:51;;;;;;;6.80;6.30;;;26.90;55.20;;;;;;5009383;28;20480;-47
2023/09/17 01:14:18;;;;;;;6.20;5.80;;;26.80;55.20;;;;;;5001696;28;20486;-50
2023/09/17 01:16:45;;;;;;;9.50;7.30;;;26.80;55.40;;;;;;5010859;28;20804;-47
2023/09/17 01:19:23;;;;;;;6.63;6.13;;;26.80;55.30;;;;;;5007520;28;20472;-49
2023/09/17 01:22:13;;;;;;;7.33;6.80;;;26.90;55.10;;;;;;5011290;28;20994;-49
2023/09/17 01:24:53;;;;;;;7.30;6.60;;;27.00;55.00;;;;;;5010012;28;20499;-49
2023/09/17 01:27:20;;;;;;;6.33;5.83;;;26.60;55.70;;;;;;5001040;28;20468;-44
2023/09/17 01:29:46;;;;;;;6.73;6.13;;;26.60;55.90;;;;;;5004371;28;21032;-48
2023/09/17 01:32:13;;;;;;;6.90;6.40;;;26.70;55.60;;;;;;5004825;28;20818;-45
2023/09/17 01:34:44;;;;;;;6.93;6.43;;;26.80;55.40;;;;;;4999562;28;20510;-47
2023/09/17 01:37:31;;;;;;;6.57;6.03;;;26.80;55.00;;;;;;4999112;28;20460;-48
2023/09/17 01:40:00;;;;;;;7.63;7.03;;;26.60;55.90;;;;;;5000178;28;20455;-47
2023/09/17 01:42:27;;;;;;;7.40;6.80;;;26.50;55.80;;;;;;5000906;28;20826;-48
2023/09/17 01:44:55;;;;;;;6.70;6.20;;;26.50;55.90;;;;;;5000466;28;20441;-49
2023/09/17 01:47:22;;;;;;;7.27;6.70;;;26.20;57.40;;;;;;5001634;28;20436;-47
2023/09/17 01:49:48;;;;;;;12.57;6.80;;;26.10;57.10;;;;;;4999716;28;20872;-47
2023/09/17 01:52:20;;;;;;;6.90;6.20;;;26.30;56.90;;;;;;4999621;28;20468;-46
2023/09/17 01:54:46;;;;;;;6.90;6.20;;;26.40;56.80;;;;;;5002409;28;20493;-46
2023/09/17 01:57:11;;;;;;;6.50;6.00;;;25.90;57.80;;;;;;5006232;28;20448;-45
2023/09/17 01:59:37;;;;;;;8.57;7.03;;;26.00;57.70;;;;;;5003756;28;20642;-47
2023/09/17 02:02:03;;;;;;;7.93;7.00;;;26.10;57.30;;;;;;5006362;28;20784;-46
2023/09/17 02:04:28;;;;;;;7.10;6.10;;;26.30;57.00;;;;;;5002434;28;20201;-46
2023/09/17 02:06:54;;;;;;;6.67;6.17;;;26.40;56.60;;;;;;5000934;28;20198;-46
2023/09/17 02:09:21;;;;;;;6.50;6.00;;;26.60;56.20;;;;;;4997864;28;20198;-46
2023/09/17 02:11:48;;;;;;;7.23;6.40;;;26.70;55.80;;;;;;5000120;28;20216;-45
2023/09/17 02:14:15;;;;;;;9.43;6.80;;;26.80;55.40;;;;;;4998113;28;20508;-45
2023/09/17 02:16:41;;;;;;;7.93;7.27;;;26.90;55.00;;;;;;5001903;28;20476;-50
2023/09/17 02:19:06;;;;;;;6.87;6.33;;;26.90;54.80;;;;;;5009457;28;20495;-50
2023/09/17 02:21:32;;;;;;;6.97;6.23;;;26.90;54.80;;;;;;5006436;28;20445;-46
2023/09/17 02:23:57;;;;;;;6.80;6.30;;;26.90;54.80;;;;;;5001817;28;20290;-49
2023/09/17 02:26:23;;;;;;;7.03;6.40;;;26.90;54.70;;;;;;5007737;28;20213;-48
2023/09/17 02:28:49;;;;;;;6.43;5.93;;;26.90;54.70;;;;;;5011477;28;20198;-45
2023/09/17 02:31:15;;;;;;;6.87;6.30;;;26.80;54.90;;;;;;5007324;28;20642;-45
2023/09/17 02:33:41;;;;;;;6.70;6.03;;;26.70;55.30;;;;;;5005791;28;20515;-46
2023/09/17 02:36:06;;;;;;;6.10;5.70;;;26.70;55.40;;;;;;5002555;28;20200;-50
2023/09/17 02:38:32;;;;;;;6.97;6.27;;;26.80;55.80;;;;;;4998755;28;21881;-46
2023/09/17 02:40:57;;;;;;;7.43;6.73;;;26.80;55.10;;;;;;5006567;28;20194;-50
2023/09/17 02:43:23;;;;;;;7.03;6.53;;;26.80;54.90;;;;;;5012521;28;20190;-46
2023/09/17 02:45:54;;;;;;;7.80;7.10;;;26.90;54.90;;;;;;5008602;28;20677;-49
2023/09/17 02:48:20;;;;;;;6.87;6.27;;;26.80;55.00;;;;;;5012699;28;20190;-48
2023/09/17 02:50:45;;;;;;;6.50;5.87;;;26.80;55.00;;;;;;5012730;28;20444;-49
2023/09/17 02:53:11;;;;;;;6.70;6.10;;;26.90;54.80;;;;;;5011358;28;20527;-51
2023/09/17 02:55:36;;;;;;;6.40;5.80;;;26.90;54.70;;;;;;5007845;28;20276;-48
2023/09/17 02:58:02;;;;;;;6.63;6.03;;;26.90;54.70;;;;;;5008188;28;20610;-49
2023/09/17 03:00:34;;;;;;;6.20;5.70;;;26.90;54.60;;;;;;5006651;28;20195;-49
2023/09/17 03:03:00;;;;;;;6.83;6.33;;;27.00;54.50;;;;;;5010781;28;20543;-46
2023/09/17 03:05:25;;;;;;;6.90;6.30;;;27.00;54.30;;;;;;5010218;28;20445;-49
2023/09/17 03:07:53;;;;;;;7.03;6.43;;;26.70;54.90;;;;;;5007688;28;20445;-51
2023/09/17 03:10:20;;;;;;;6.93;6.30;;;26.70;55.00;;;;;;5010492;28;20276;-45
2023/09/17 03:12:46;;;;;;;6.80;6.30;;;26.50;55.30;;;;;;5013945;28;20506;-44
2023/09/17 03:15:12;;;;;;;7.30;6.57;;;26.20;56.40;;;;;;5008653;28;20484;-44
2023/09/17 03:17:38;;;;;;;6.27;5.37;;;26.20;56.50;;;;;;5010445;28;21006;-44
2023/09/17 03:20:13;;;;;;;6.67;6.13;;;26.30;56.30;;;;;;5010132;28;20456;-53
2023/09/17 03:22:43;;;;;;;6.07;5.67;;;26.40;55.80;;;;;;5006799;28;20657;-44
2023/09/17 03:25:09;;;;;;;6.20;5.80;;;26.60;55.50;;;;;;5001717;28;20975;-45
2023/09/17 03:27:34;;;;;;;7.70;7.00;;;26.70;55.20;;;;;;5005630;28;20433;-49
2023/09/17 03:30:05;;;;;;;7.10;6.60;;;26.80;55.10;;;;;;5002424;28;20194;-51
2023/09/17 03:32:31;;;;;;;6.47;5.97;;;26.80;54.60;;;;;;5006805;28;20221;-46
2023/09/17 03:34:57;;;;;;;6.80;6.30;;;26.80;54.50;;;;;;5012462;28;20492;-46
2023/09/17 03:37:23;;;;;;;6.37;5.87;;;26.70;54.70;;;;;;5008584;28;20442;-48
2023/09/17 03:40:11;;;;;;;6.50;5.97;;;26.70;55.00;;;;;;5007055;28;20251;-46
2023/09/17 03:42:38;;;;;;;6.33;5.93;;;26.60;55.10;;;;;;5003809;28;20194;-45
2023/09/17 03:45:09;;;;;;;6.97;6.37;;;26.70;55.00;;;;;;5005511;28;20432;-47
2023/09/17 03:47:35;;;;;;;5.90;5.50;;;26.70;54.90;;;;;;5007773;28;20484;-48
2023/09/17 03:50:01;;;;;;;6.57;5.83;;;26.80;54.70;;;;;;5001822;28;20441;-49
2023/09/17 03:52:27;;;;;;;6.67;6.03;;;26.80;55.20;;;;;;5014373;28;20592;-44
2023/09/17 03:54:53;;;;;;;6.60;6.10;;;26.80;54.70;;;;;;5001688;28;20321;-47
2023/09/17 03:57:18;;;;;;;7.37;6.77;;;26.70;55.00;;;;;;5010617;28;20190;-50
2023/09/17 03:59:44;;;;;;;6.50;5.93;;;26.70;55.30;;;;;;5009572;28;20197;-49
2023/09/17 04:02:10;;;;;;;7.60;6.40;;;26.70;55.20;;;;;;5001581;28;20311;-49
2023/09/17 04:04:35;;;;;;;6.90;6.30;;;26.80;55.00;;;;;;5006489;28;20580;-46
2023/09/17 04:07:02;;;;;;;7.70;5.80;;;26.80;54.90;;;;;;5002583;28;20725;-45
2023/09/17 04:09:29;;;;;;;6.73;6.10;;;26.80;54.70;;;;;;5007909;28;20301;-50
2023/09/17 04:11:55;;;;;;;7.30;6.77;;;26.80;54.80;;;;;;5007700;28;20480;-48
2023/09/17 04:14:21;;;;;;;6.50;6.00;;;26.80;54.60;;;;;;5007217;28;21062;-47
2023/09/17 04:16:46;;;;;;;5.93;5.53;;;26.70;54.70;;;;;;5009218;28;20232;-47
2023/09/17 04:19:12;;;;;;;6.53;5.93;;;26.50;55.00;;;;;;5005509;28;20441;-48
2023/09/17 04:21:38;;;;;;;7.80;7.00;;;26.40;55.40;;;;;;5009800;28;20218;-49
2023/09/17 04:24:03;;;;;;;5.97;5.50;;;26.50;55.30;;;;;;5012677;28;20193;-46
2023/09/17 04:26:32;;;;;;;6.40;5.90;;;26.50;55.20;;;;;;5010075;28;20198;-47
2023/09/17 04:28:57;;;;;;;5.70;5.30;;;26.60;55.00;;;;;;5006790;28;20194;-44
2023/09/17 04:31:23;;;;;;;6.47;5.97;;;26.60;54.80;;;;;;5008148;28;20444;-44
2023/09/17 04:33:48;;;;;;;6.50;6.00;;;26.60;54.90;;;;;;5011684;28;20320;-47
2023/09/17 04:36:15;;;;;;;6.40;5.80;;;26.60;55.10;;;;;;5008214;28;20200;-44
2023/09/17 04:38:40;;;;;;;6.10;5.50;;;26.60;55.00;;;;;;5008969;28;20205;-45
2023/09/17 04:41:06;;;;;;;6.43;5.93;;;26.60;54.90;;;;;;5006298;28;20448;-45
2023/09/17 04:43:31;;;;;;;5.37;4.97;;;26.60;54.70;;;;;;5009981;28;20636;-49
2023/09/17 04:45:59;;;;;;;7.03;6.53;;;26.70;54.90;;;;;;5003815;28;20252;-49
2023/09/17 04:48:24;;;;;;;6.33;5.73;;;26.70;54.80;;;;;;5011332;28;20205;-46
2023/09/17 04:50:50;;;;;;;6.20;5.80;;;26.70;54.70;;;;;;5008618;28;20449;-47
2023/09/17 04:53:16;;;;;;;6.60;5.53;;;26.60;55.00;;;;;;5010196;28;20194;-45
2023/09/17 04:55:42;;;;;;;7.77;7.00;;;26.50;55.30;;;;;;5006838;28;20204;-46
2023/09/17 04:58:07;;;;;;;5.43;5.03;;;26.30;55.40;;;;;;5011971;28;20441;-45
2023/09/17 05:00:34;;;;;;;5.97;5.57;;;26.30;55.60;;;;;;5009335;28;20713;-46
2023/09/17 05:03:00;;;;;;;6.87;5.43;;;26.30;56.30;;;;;;5008745;28;20245;-44
2023/09/17 05:05:25;;;;;;;8.20;5.90;;;26.40;55.40;;;;;;5008631;28;20506;-45
2023/09/17 05:07:51;;;;;;;6.50;6.00;;;26.40;55.30;;;;;;4997012;28;20454;-45
2023/09/17 05:10:17;;;;;;;6.90;6.30;;;26.20;55.40;;;;;;5008044;28;20202;-45
2023/09/17 05:12:43;;;;;;;7.47;6.17;;;26.30;55.40;;;;;;5011351;28;20684;-46
2023/09/17 05:15:09;;;;;;;6.63;6.07;;;26.30;55.00;;;;;;5005922;28;20261;-47
2023/09/17 05:17:35;;;;;;;6.73;6.13;;;26.30;55.20;;;;;;5009329;28;20845;-47
2023/09/17 05:20:00;;;;;;;7.67;6.87;;;26.30;55.40;;;;;;5005405;28;20607;-48
2023/09/17 05:22:26;;;;;;;6.87;6.20;;;26.20;55.50;;;;;;5008310;28;20572;-44
2023/09/17 05:24:51;;;;;;;6.20;5.70;;;26.00;56.00;;;;;;4998151;28;20271;-48
2023/09/17 05:27:17;;;;;;;7.63;6.93;;;25.90;56.50;;;;;;5002681;28;20207;-45
2023/09/17 05:29:45;;;;;;;6.70;6.10;;;25.70;56.80;;;;;;5003032;28;20198;-50
2023/09/17 05:32:11;;;;;;;6.83;6.23;;;25.80;56.70;;;;;;4997408;28;20233;-47
2023/09/17 05:34:36;;;;;;;7.10;6.50;;;25.80;56.40;;;;;;4999589;28;20525;-47
2023/09/17 05:37:02;;;;;;;6.80;6.20;;;25.80;56.40;;;;;;5006686;28;20194;-47
2023/09/17 05:39:28;;;;;;;7.20;6.50;;;25.60;56.90;;;;;;5009132;28;20190;-48
2023/09/17 05:41:55;;;;;;;6.77;6.23;;;25.60;56.80;;;;;;5008230;28;20464;-47
2023/09/17 05:44:20;;;;;;;7.63;6.93;;;25.80;56.50;;;;;;5008325;28;20193;-47
2023/09/17 05:46:46;;;;;;;8.00;7.30;;;25.80;56.40;;;;;;5009631;28;20440;-47
2023/09/17 05:49:11;;;;;;;6.90;6.30;;;25.80;56.30;;;;;;5010864;28;20201;-48
2023/09/17 05:51:37;;;;;;;7.37;6.67;;;25.90;56.30;;;;;;5004648;28;20210;-44
2023/09/17 05:54:03;;;;;;;7.33;6.73;;;25.90;56.30;;;;;;5008688;28;20303;-47
2023/09/17 05:56:28;;;;;;;7.57;6.97;;;25.80;56.50;;;;;;5008643;28;20190;-47
2023/09/17 05:58:54;;;;;;;6.90;6.30;;;25.80;56.50;;;;;;5010032;28;20244;-47
2023/09/17 06:01:19;;;;;;;7.27;6.60;;;25.80;56.30;;;;;;5002232;28;20202;-47
2023/09/17 06:03:45;;;;;;;6.90;6.20;;;25.90;56.50;;;;;;5005233;28;20198;-50
2023/09/17 06:06:10;;;;;;;6.20;5.80;;;25.90;56.40;;;;;;5013287;28;20255;-46
2023/09/17 06:08:36;;;;;;;7.30;6.70;;;25.90;56.40;;;;;;5012126;28;20206;-47
2023/09/17 06:11:01;;;;;;;6.57;6.07;;;25.90;56.50;;;;;;5000817;28;20190;-48
2023/09/17 06:13:27;;;;;;;5.90;5.40;;;26.00;56.40;;;;;;5007966;28;20237;-49
2023/09/17 06:15:53;;;;;;;6.40;5.80;;;26.10;56.40;;;;;;4998584;28;20191;-46
2023/09/17 06:18:18;;;;;;;7.93;6.10;;;26.20;56.00;;;;;;5005005;28;20190;-50
2023/09/17 06:20:44;;;;;;;6.97;6.30;;;26.40;55.80;;;;;;5010321;28;20201;-46
2023/09/17 06:23:10;;;;;;;7.87;6.87;;;26.40;55.60;;;;;;5014755;28;20550;-48
2023/09/17 06:25:35;;;;;;;6.30;5.80;;;26.60;55.70;;;;;;5016230;28;20194;-48
2023/09/17 06:28:01;;;;;;;6.97;6.47;;;26.70;55.00;;;;;;5016253;28;20198;-49
2023/09/17 06:30:26;;;;;;;8.40;6.70;;;26.80;54.80;;;;;;5013305;28;20256;-45
2023/09/17 06:32:52;;;;;;;6.27;5.77;;;26.60;54.80;;;;;;5013952;28;20209;-47
2023/09/17 06:35:18;;;;;;;6.10;5.70;;;26.10;56.20;;;;;;5015479;28;20276;-47
2023/09/17 06:37:43;;;;;;;6.80;6.10;;;25.90;56.80;;;;;;5015823;28;20421;-50
2023/09/17 06:40:10;;;;;;;6.60;6.10;;;25.90;56.90;;;;;;5016026;28;20268;-48
2023/09/17 06:42:36;;;;;;;6.50;5.83;;;26.10;56.40;;;;;;5014746;28;20346;-46
2023/09/17 06:45:02;;;;;;;6.77;6.00;;;26.30;56.00;;;;;;5014658;28;20915;-48
2023/09/17 06:47:28;;;;;;;6.43;5.93;;;26.30;55.80;;;;;;5013792;28;20484;-47
2023/09/17 06:49:53;;;;;;;7.07;6.33;;;26.40;55.80;;;;;;5015583;28;20468;-49
2023/09/17 06:52:19;;;;;;;6.90;6.40;;;26.40;55.50;;;;;;5014536;28;20198;-45
2023/09/17 06:54:44;;;;;;;6.60;6.00;;;26.30;55.80;;;;;;5014378;28;20229;-46
2023/09/17 06:57:10;;;;;;;6.93;6.33;;;26.50;55.60;;;;;;5013915;28;20201;-51
2023/09/17 06:59:36;;;;;;;6.10;5.60;;;26.60;55.30;;;;;;5003110;28;20552;-48
2023/09/17 07:02:01;;;;;;;7.07;6.37;;;26.70;55.10;;;;;;5005434;28;20364;-48
2023/09/17 07:04:27;;;;;;;8.50;7.07;;;26.70;55.10;;;;;;5012702;28;20193;-47
2023/09/17 07:06:53;;;;;;;6.60;6.10;;;26.80;54.90;;;;;;5014154;28;20661;-52
2023/09/17 07:09:19;;;;;;;6.20;5.60;;;26.60;55.30;;;;;;5015403;28;20252;-49
2023/09/17 07:11:44;;;;;;;6.23;5.73;;;26.80;55.20;;;;;;5015839;28;20425;-47
2023/09/17 07:14:10;;;;;;;6.07;5.67;;;26.80;55.00;;;;;;5014213;28;20658;-47
2023/09/17 07:16:36;;;;;;;8.00;6.03;;;27.00;54.70;;;;;;5010853;28;20244;-45
2023/09/17 07:19:04;;;;;;;6.63;6.03;;;27.30;54.10;;;;;;5014821;28;20590;-46
2023/09/17 07:21:31;;;;;;;6.23;5.73;;;27.50;53.50;;;;;;5015238;28;20785;-51
2023/09/17 07:23:56;;;;;;;6.93;6.23;;;27.60;53.10;;;;;;5012305;28;20444;-45
2023/09/17 07:26:22;;;;;;;5.87;5.37;;;27.60;53.10;;;;;;5012155;28;20491;-47
2023/09/17 07:28:47;;;;;;;5.60;5.30;;;27.70;52.90;;;;;;5013013;28;20198;-47
2023/09/17 07:31:15;;;;;;;6.13;5.63;;;27.90;52.60;;;;;;5011492;28;20198;-49
2023/09/17 07:33:42;;;;;;;6.93;5.30;;;27.80;52.30;;;;;;5013863;28;20260;-47
2023/09/17 07:36:09;;;;;;;6.40;5.87;;;27.80;52.30;;;;;;5015010;28;20434;-46
2023/09/17 07:38:34;;;;;;;5.60;5.20;;;26.90;53.90;;;;;;5014834;28;20445;-47
2023/09/17 07:41:00;;;;;;;9.30;5.93;;;26.80;54.80;;;;;;5011717;28;20613;-45
2023/09/17 07:43:25;;;;;;;6.13;5.63;;;26.90;54.50;;;;;;5014410;28;20198;-46
2023/09/17 07:45:51;;;;;;;6.10;5.60;;;27.10;53.90;;;;;;5014683;28;20190;-45
2023/09/17 07:48:16;;;;;;;6.17;5.60;;;27.00;54.00;;;;;;5014681;28;20557;-46
2023/09/17 07:50:43;;;;;;;6.10;5.70;;;26.80;54.80;;;;;;5008129;28;20201;-47
2023/09/17 07:53:09;;;;;;;5.63;5.13;;;26.90;54.70;;;;;;5008875;28;20197;-48
2023/09/17 07:55:35;;;;;;;6.00;5.50;;;27.10;54.20;;;;;;5012678;28;20488;-47
2023/09/17 07:58:00;;;;;;;4.97;4.57;;;27.20;53.90;;;;;;5014087;28;20252;-45
2023/09/17 08:00:26;;;;;;;4.97;4.57;;;27.30;53.60;;;;;;5014393;28;20273;-46
2023/09/17 08:02:51;;;;;;;5.57;5.17;;;27.40;53.30;;;;;;5013347;28;20233;-48
2023/09/17 08:05:17;;;;;;;6.70;6.20;;;27.30;54.00;;;;;;5012206;28;20193;-45
2023/09/17 08:07:44;;;;;;;5.57;5.17;;;27.20;53.80;;;;;;5014247;28;20213;-45
2023/09/17 08:10:10;;;;;;;5.43;4.93;;;27.00;54.10;;;;;;5013981;28;20198;-45
2023/09/17 08:12:36;;;;;;;5.43;5.03;;;26.90;54.60;;;;;;5013574;28;20441;-49
2023/09/17 08:15:01;;;;;;;5.83;5.43;;;27.10;54.30;;;;;;5011952;28;20493;-50
2023/09/17 08:17:27;;;;;;;5.30;4.90;;;27.30;53.70;;;;;;5011170;28;20248;-48
2023/09/17 08:19:54;;;;;;;5.30;4.90;;;27.50;53.30;;;;;;5007314;28;20717;-46
2023/09/17 08:22:21;;;;;;;5.47;5.07;;;27.60;53.00;;;;;;5006011;28;20617;-48
2023/09/17 08:24:47;;;;;;;5.83;4.90;;;27.70;52.70;;;;;;5007753;28;20452;-48
2023/09/17 08:27:15;;;;;;;4.73;4.40;;;27.80;52.80;;;;;;5009481;28;20936;-47
2023/09/17 08:29:41;;;;;;;5.67;5.27;;;27.80;52.70;;;;;;5010928;28;20194;-44
2023/09/17 08:32:07;;;;;;;5.50;5.00;;;27.90;52.60;;;;;;5007150;28;20441;-49
2023/09/17 08:34:32;;;;;;;5.73;5.30;;;28.10;52.30;;;;;;5002745;28;20234;-46
2023/09/17 08:36:58;;;;;;;5.50;5.10;;;28.20;52.00;;;;;;5008654;28;20959;-45
2023/09/17 08:39:25;;;;;;;4.87;4.57;;;28.00;52.10;;;;;;5012161;28;20225;-44
2023/09/17 08:41:51;;;;;;;4.40;4.10;;;28.00;51.90;;;;;;5010367;28;20399;-45
2023/09/17 08:44:18;;;;;;;4.93;4.33;;;28.00;51.80;;;;;;5009004;28;20448;-48
2023/09/17 08:46:45;;;;;;;4.60;4.30;;;28.00;51.90;;;;;;5005350;28;20947;-46
2023/09/17 08:49:11;;;;;;;5.20;4.70;;;28.00;52.10;;;;;;5005370;28;20461;-51
2023/09/17 08:51:40;;;;;;;4.93;4.63;;;27.90;52.10;;;;;;5007893;28;20459;-45
2023/09/17 08:54:12;;;;;;;4.60;4.30;;;27.90;51.90;;;;;;5006767;28;20514;-48
2023/09/17 08:56:42;;;;;;;4.40;4.07;;;27.80;51.90;;;;;;5009003;28;20798;-50
2023/09/17 08:59:11;;;;;;;6.53;5.90;;;27.90;51.20;;;;;;4998896;28;20808;-47
2023/09/17 09:01:39;;;;;;;4.60;4.20;;;28.20;50.30;;;;;;5009478;28;20579;-50
2023/09/17 09:04:06;;;;;;;4.50;4.13;;;28.60;49.50;;;;;;5007308;28;20455;-50
2023/09/17 09:06:33;;;;;;;4.33;3.87;;;29.00;48.70;;;;;;5004770;28;20440;-46
2023/09/17 09:09:00;;;;;;;3.50;3.20;;;29.30;47.50;;;;;;5000987;28;20447;-46
2023/09/17 09:11:27;;;;;;;4.30;4.00;;;29.50;46.70;;;;;;4998429;28;20485;-47
2023/09/17 09:13:55;;;;;;;3.87;3.57;;;29.40;46.40;;;;;;5012063;28;20559;-50
2023/09/17 09:16:21;;;;;;;4.23;3.30;;;29.40;46.80;;;;;;5012245;28;21063;-49
2023/09/17 09:18:47;;;;;;;4.03;3.70;;;29.80;46.30;;;;;;5002859;28;20516;-50
2023/09/17 09:21:14;;;;;;;3.80;3.53;;;30.20;46.10;;;;;;5006172;28;20524;-47
2023/09/17 09:23:40;;;;;;;4.37;4.07;;;30.40;45.60;;;;;;5005890;28;20201;-49
2023/09/17 09:26:06;;;;;;;4.90;4.50;;;30.70;45.10;;;;;;5007428;28;20490;-51
2023/09/17 09:28:31;;;;;;;3.90;3.60;;;31.00;44.70;;;;;;5010609;28;20198;-48
2023/09/17 09:30:58;;;;;;;4.10;3.80;;;31.20;44.30;;;;;;5000348;28;20433;-51
2023/09/17 09:33:24;;;;;;;4.37;3.70;;;31.40;44.20;;;;;;4998658;28;20224;-46
2023/09/17 09:35:50;;;;;;;5.73;4.07;;;31.60;44.30;;;;;;5007010;28;21181;-47
2023/09/17 09:38:18;;;;;;;3.90;3.70;;;31.60;43.60;;;;;;5001969;28;20479;-48
2023/09/17 09:40:44;;;;;;;4.10;3.80;;;31.70;43.70;;;;;;4999567;28;20197;-50
2023/09/17 09:43:30;;;;;;;4.20;3.80;;;31.90;43.20;;;;;;5007182;28;21046;-49
2023/09/17 09:46:00;;;;;;;4.60;4.00;;;32.20;43.00;;;;;;5005853;28;20506;-48
2023/09/17 09:48:28;;;;;;;3.43;3.13;;;32.20;42.30;;;;;;5007677;28;20452;-51
2023/09/17 09:50:53;;;;;;;3.77;3.03;;;32.20;42.30;;;;;;5009884;28;20460;-49
2023/09/17 09:53:19;;;;;;;3.40;3.10;;;32.40;41.70;;;;;;5007542;28;20441;-47
2023/09/17 09:55:46;;;;;;;3.47;3.17;;;32.30;40.60;;;;;;5002976;28;20233;-53
2023/09/17 09:58:13;;;;;;;4.77;2.80;;;32.30;40.70;;;;;;5000651;28;20682;-51
2023/09/17 10:00:44;;;;;;;3.43;3.13;;;32.60;40.10;;;;;;5000167;28;20449;-51
2023/09/17 10:03:11;;;;;;;3.23;2.93;;;32.90;39.50;;;;;;5009560;28;20473;-51
2023/09/17 10:05:39;;;;;;;6.10;3.50;;;32.60;39.60;;;;;;5008240;28;20468;-51
2023/09/17 10:08:07;;;;;;;3.27;3.00;;;32.50;39.10;;;;;;5008402;28;20920;-52
2023/09/17 10:10:34;;;;;;;8.70;2.80;;;32.90;38.70;;;;;;4988508;28;20830;-52
2023/09/17 10:13:04;;;;;;;6.63;3.20;;;33.30;38.70;;;;;;5006295;28;20491;-48
2023/09/17 10:15:30;;;;;;;3.60;3.00;;;33.30;37.90;;;;;;4998653;28;20488;-51
2023/09/17 10:17:57;;;;;;;4.33;3.20;;;33.70;38.10;;;;;;5007785;28;20456;-52
2023/09/17 10:20:23;;;;;;;7.90;2.53;;;33.60;36.70;;;;;;5009778;28;20535;-52
2023/09/17 10:22:51;;;;;;;4.80;2.60;;;33.80;36.40;;;;;;5008984;28;20603;-50
2023/09/17 10:25:18;;;;;;;8.03;3.00;;;34.00;36.10;;;;;;5008218;28;20449;-52
2023/09/17 10:27:46;;;;;;;4.93;2.90;;;34.30;35.70;;;;;;5007449;28;20452;-52
2023/09/17 10:30:14;;;;;;;6.40;4.00;;;34.70;35.50;;;;;;5009234;28;20576;-49
2023/09/17 10:32:41;;;;;;;4.27;3.43;;;34.80;34.30;;;;;;4987437;28;20452;-53
2023/09/17 10:35:09;;;;;;;7.30;3.50;;;34.70;34.50;;;;;;5000331;28;20504;-49
2023/09/17 10:37:36;;;;;;;4.57;2.97;;;34.80;33.70;;;;;;5003995;28;20788;-51
2023/09/17 10:40:04;;;;;;;6.93;3.07;;;35.00;33.60;;;;;;5006414;28;20441;-50
2023/09/17 10:42:34;;;;;;;4.73;3.03;;;35.20;33.50;;;;;;5000797;28;20449;-51
2023/09/17 10:45:04;;;;;;;4.30;2.90;;;35.20;32.70;;;;;;5006478;28;20448;-52
2023/09/17 10:47:33;;;;;;;4.53;2.90;;;35.30;32.70;;;;;;5010047;28;20463;-52
2023/09/17 10:49:58;;;;;;;4.63;3.30;;;35.30;33.10;;;;;;5007868;28;20967;-51
2023/09/17 10:52:25;;;;;;;7.23;3.60;;;35.50;33.10;;;;;;5011848;28;20452;-53
2023/09/17 10:54:50;;;;;;;4.10;2.80;;;35.80;33.10;;;;;;5010150;28;20236;-52
2023/09/17 10:57:22;;;;;;;8.83;3.50;;;36.00;33.20;;;;;;5010018;28;20512;-52
2023/09/17 10:59:48;;;;;;;4.20;2.60;;;36.10;33.10;;;;;;5005200;28;20205;-48
2023/09/17 11:02:15;;;;;;;6.43;3.20;;;36.10;32.50;;;;;;5011344;28;20547;-48
2023/09/17 11:04:41;;;;;;;6.30;3.40;;;36.20;32.20;;;;;;5008161;28;20536;-51
2023/09/17 11:07:08;;;;;;;4.90;3.00;;;36.30;32.00;;;;;;5007712;28;20441;-46
2023/09/17 11:09:34;;;;;;;7.23;3.43;;;36.20;31.90;;;;;;5013078;28;20499;-46
2023/09/17 11:12:01;;;;;;;3.97;2.77;;;36.30;32.00;;;;;;5013689;28;20881;-47
2023/09/17 11:14:29;;;;;;;5.00;3.33;;;36.30;32.30;;;;;;5012527;28;20884;-50
2023/09/17 11:16:54;;;;;;;2.60;2.20;;;36.40;31.10;;;;;;5012586;28;20440;-51
2023/09/17 11:19:20;;;;;;;6.73;3.07;;;36.20;32.20;;;;;;5011484;28;20947;-46
2023/09/17 11:22:06;;;;;;;5.57;2.83;;;36.10;32.70;;;;;;5014695;28;20196;-48
2023/09/17 11:24:32;;;;;;;5.50;3.17;;;36.30;32.70;;;;;;5002067;28;20217;-49
2023/09/17 11:27:01;;;;;;;3.70;2.60;;;36.50;31.70;;;;;;5013434;28;20443;-50
2023/09/17 11:29:40;;;;;;;6.43;2.87;;;36.40;31.00;;;;;;5008737;28;20951;-49
2023/09/17 11:32:06;;;;;;;5.80;3.17;;;36.00;31.30;;;;;;5005994;28;20461;-46
2023/09/17 11:34:37;;;;;;;4.40;2.70;;;35.80;31.60;;;;;;5008237;28;20495;-48
2023/09/17 11:37:05;;;;;;;6.30;3.13;;;35.90;32.30;;;;;;5013504;28;21301;-47
2023/09/17 11:39:33;;;;;;;4.47;2.80;;;36.10;31.30;;;;;;5010262;28;20447;-47
2023/09/17 11:42:05;;;;;;;4.13;2.60;;;36.20;30.90;;;;;;5009928;28;20968;-49
2023/09/17 11:44:36;;;;;;;4.63;3.37;;;36.30;31.30;;;;;;5009945;28;20547;-48
2023/09/17 11:47:03;;;;;;;7.20;2.90;;;36.50;31.40;;;;;;5011246;28;20864;-50
2023/09/17 11:49:29;;;;;;;3.57;2.50;;;36.60;30.80;;;;;;5012855;28;20843;-52
2023/09/17 11:51:57;;;;;;;5.13;2.83;;;36.70;30.20;;;;;;5010330;28;20448;-50
2023/09/17 11:54:29;;;;;;;2.97;2.67;;;36.70;29.90;;;;;;5009150;28;20225;-48
2023/09/17 11:56:55;;;;;;;4.60;2.63;;;36.70;30.00;;;;;;5008585;28;20448;-51
2023/09/17 11:59:22;;;;;;;3.73;2.77;;;36.60;30.10;;;;;;5005524;28;22187;-46
2023/09/17 12:01:52;;;;;;;7.57;3.33;;;36.60;30.60;;;;;;5005920;28;21014;-47
2023/09/17 12:04:19;;;;;;;2.67;2.47;;;36.70;31.00;;;;;;5009081;28;21067;-46
2023/09/17 12:06:49;;;;;;;5.90;3.17;;;36.70;30.60;;;;;;5007673;28;20445;-46
2023/09/17 12:09:20;;;;;;;5.40;3.27;;;36.80;30.70;;;;;;5009743;28;20444;-47
2023/09/17 12:11:47;;;;;;;9.27;3.43;;;36.80;30.80;;;;;;5004678;28;20463;-51
2023/09/17 12:14:16;;;;;;;5.10;2.70;;;36.70;30.50;;;;;;5005390;28;20945;-50
2023/09/17 12:16:42;;;;;;;3.40;2.40;;;36.80;29.90;;;;;;5001702;28;20543;-46
2023/09/17 12:19:08;;;;;;;3.30;2.40;;;36.90;30.00;;;;;;5000645;28;20445;-49
2023/09/17 12:21:40;;;;;;;4.23;2.60;;;36.80;29.70;;;;;;5004013;28;20478;-52
2023/09/17 12:24:08;;;;;;;7.70;2.80;;;36.70;29.70;;;;;;4998732;28;20461;-47
2023/09/17 12:26:47;;;;;;;3.97;2.23;;;36.40;30.10;;;;;;5001861;28;20472;-46
2023/09/17 12:29:13;;;;;;;2.90;2.40;;;36.00;31.00;;;;;;5010265;28;20444;-51
2023/09/17 12:31:40;;;;;;;6.40;2.70;;;36.00;30.90;;;;;;5006495;28;21015;-47
2023/09/17 12:34:06;;;;;;;5.43;3.03;;;35.90;31.30;;;;;;5010863;28;20259;-46
2023/09/17 12:36:32;;;;;;;3.13;2.40;;;35.90;31.10;;;;;;5008680;28;20495;-50
2023/09/17 12:38:57;;;;;;;3.63;2.87;;;35.90;31.00;;;;;;5007392;28;20234;-50
2023/09/17 12:41:23;;;;;;;5.60;3.27;;;36.20;30.90;;;;;;5012698;28;20204;-49
2023/09/17 12:43:49;;;;;;;4.50;2.47;;;36.50;31.00;;;;;;5012393;28;20200;-45
2023/09/17 12:46:15;;;;;;;3.43;2.43;;;36.70;30.00;;;;;;5009116;28;20563;-48